Terminal Aerodrome Forecast
Issued by NWS

Home | Current Version | Previous Version | Text Only | Print | Product List | Glossary On
Versions: 1 2 3 4 5 6 7 8 9 10 11 12 13 14 15
000
FTAK31 PAJN 231700
TAFAKT
TAF
PAKT 231740Z 2318/2418 14006KT P6SM SCT150
     FM240000 VRB04KT P6SM SCT050 BKN100
     FM240900 VRB03KT P6SM SCT020 BKN040 BKN080
     FM241200 VRB03KT P6SM OVC050
     FM241500 VRB04KT P6SM SCT025 OVC050
      AMD LTD TO CLD VIS AND WIND 2406/2415=

USA.gov is the U.S. government's official web portal to all federal, state and local government web resources and services.